createdAt,value
2023-03-08T00:00:02.656Z,1.90
2023-03-08T00:02:58.422Z,1.80
2023-03-08T00:05:45.904Z,1.80
2023-03-08T00:08:33.341Z,1.80
2023-03-08T00:11:20.798Z,1.80
2023-03-08T00:14:09.903Z,1.80
2023-03-08T00:16:57.568Z,1.80
2023-03-08T00:19:45.454Z,1.80
2023-03-08T00:22:36.751Z,1.80
2023-03-08T00:25:24.123Z,1.70
2023-03-08T00:28:11.628Z,1.70
2023-03-08T00:31:02.490Z,1.70
2023-03-08T00:33:53.910Z,1.70
2023-03-08T00:36:41.446Z,1.70
2023-03-08T00:39:29.135Z,1.70
2023-03-08T00:42:16.646Z,1.70
2023-03-08T00:45:04.387Z,1.70
2023-03-08T00:47:53.072Z,1.70
2023-03-08T00:50:40.916Z,1.70
2023-03-08T00:53:28.831Z,1.70
2023-03-08T00:56:16.782Z,1.70
2023-03-08T00:59:05.186Z,1.60
2023-03-08T01:01:52.938Z,1.60
2023-03-08T01:04:41.966Z,1.60
2023-03-08T01:07:29.655Z,1.60
2023-03-08T01:10:17.779Z,1.60
2023-03-08T01:13:06.442Z,1.60
2023-03-08T01:15:54.406Z,1.60
2023-03-08T01:18:41.995Z,1.60
2023-03-08T01:21:32.654Z,1.60
2023-03-08T01:24:21.502Z,1.60
2023-03-08T01:27:09.567Z,1.60
2023-03-08T01:29:57.138Z,1.60
2023-03-08T01:32:45.065Z,1.60
2023-03-08T01:35:32.518Z,1.50
2023-03-08T01:38:21.252Z,1.50
2023-03-08T01:41:14.050Z,1.50
2023-03-08T01:44:01.809Z,1.50
2023-03-08T01:46:50.527Z,1.50
2023-03-08T01:49:49.305Z,1.50
2023-03-08T01:52:40.721Z,1.50
2023-03-08T01:55:29.947Z,1.50
2023-03-08T01:58:17.968Z,1.50
2023-03-08T02:01:06.216Z,1.50
2023-03-08T02:03:54.314Z,1.50
2023-03-08T02:06:43.206Z,1.50
2023-03-08T02:09:30.726Z,1.50
2023-03-08T02:12:22.916Z,1.50
2023-03-08T02:15:13.058Z,1.40
2023-03-08T02:18:01.595Z,1.40
2023-03-08T02:20:48.957Z,1.40
2023-03-08T02:23:37.751Z,1.40
2023-03-08T02:26:25.748Z,1.30
2023-03-08T02:29:13.150Z,1.30
2023-03-08T02:32:00.845Z,1.30
2023-03-08T02:34:48.354Z,1.30
2023-03-08T02:37:36.598Z,1.30
2023-03-08T02:40:25.616Z,1.30
2023-03-08T02:43:14.415Z,1.30
2023-03-08T02:46:01.955Z,1.30
2023-03-08T02:48:52.978Z,1.30
2023-03-08T02:51:42.303Z,1.30
2023-03-08T02:54:30.048Z,1.30
2023-03-08T02:57:19.114Z,1.30
2023-03-08T03:00:08.702Z,1.20
2023-03-08T03:02:56.626Z,1.20
2023-03-08T03:05:44.718Z,1.20
2023-03-08T03:08:35.954Z,1.20
2023-03-08T03:11:24.714Z,1.20
2023-03-08T03:14:14.283Z,1.20
2023-03-08T03:17:04.142Z,1.20
2023-03-08T03:19:51.837Z,1.20
2023-03-08T03:22:39.579Z,1.20
2023-03-08T03:25:28.553Z,1.20
2023-03-08T03:28:16.287Z,1.20
2023-03-08T03:31:09.201Z,1.20
2023-03-08T03:33:56.870Z,1.20
2023-03-08T03:36:46.900Z,1.20
2023-03-08T03:39:39.217Z,1.20
2023-03-08T03:42:29.077Z,1.20
2023-03-08T03:45:25.750Z,1.10
2023-03-08T03:48:17.302Z,1.10
2023-03-08T03:51:06.710Z,1.10
2023-03-08T03:53:55.629Z,1.10
2023-03-08T03:56:44.168Z,1.10
2023-03-08T03:59:34.062Z,1.10
2023-03-08T04:02:22.230Z,1.10
2023-03-08T04:05:16.853Z,1.00
2023-03-08T04:08:09.017Z,1.00
2023-03-08T04:11:01.608Z,1.00
2023-03-08T04:13:49.574Z,1.10
2023-03-08T04:16:40.522Z,1.10
2023-03-08T04:19:35.457Z,1.00
2023-03-08T04:22:25.448Z,1.00
2023-03-08T04:25:17.754Z,1.00
2023-03-08T04:28:12.055Z,1.00
2023-03-08T04:31:00.049Z,1.00
2023-03-08T04:33:48.643Z,1.00
2023-03-08T04:36:37.671Z,1.00
2023-03-08T04:39:26.623Z,0.90
2023-03-08T04:42:14.440Z,0.90
2023-03-08T04:45:02.315Z,0.90
2023-03-08T04:47:50.473Z,0.90
2023-03-08T04:50:39.338Z,0.90
2023-03-08T04:53:27.947Z,0.90
2023-03-08T04:56:17.871Z,0.90
2023-03-08T04:59:06.677Z,0.90
2023-03-08T05:01:54.614Z,0.90
2023-03-08T05:04:43.638Z,0.90
2023-03-08T05:07:31.713Z,0.90
2023-03-08T05:10:21.513Z,0.90
2023-03-08T05:13:10.648Z,0.90
2023-03-08T05:15:59.654Z,0.90
2023-03-08T05:18:49.332Z,0.90
2023-03-08T05:21:38.890Z,0.90
2023-03-08T05:24:27.409Z,0.90
2023-03-08T05:27:16.993Z,0.90
2023-03-08T05:30:08.268Z,0.80
2023-03-08T05:32:56.125Z,0.90
2023-03-08T05:35:43.586Z,0.90
2023-03-08T05:38:31.966Z,0.90
2023-03-08T05:41:20.051Z,0.90
2023-03-08T05:44:11.529Z,0.90
2023-03-08T05:47:01.838Z,0.90
2023-03-08T05:49:49.493Z,0.90
2023-03-08T05:52:38.990Z,0.90
2023-03-08T05:55:26.811Z,0.90
2023-03-08T05:58:14.311Z,1.00
2023-03-08T06:01:01.798Z,1.00
2023-03-08T06:03:52.588Z,1.00
2023-03-08T06:06:41.993Z,1.00
2023-03-08T06:09:29.757Z,1.00
2023-03-08T06:12:18.154Z,1.10
2023-03-08T06:15:09.721Z,1.10
2023-03-08T06:17:58.643Z,1.10
2023-03-08T06:20:57.275Z,1.20
2023-03-08T06:23:45.720Z,1.20
2023-03-08T06:26:33.921Z,1.20
2023-03-08T06:29:21.665Z,1.20
2023-03-08T06:32:09.370Z,1.30
2023-03-08T06:34:59.369Z,1.30
2023-03-08T06:37:48.451Z,1.30
2023-03-08T06:40:36.999Z,1.30
2023-03-08T06:43:24.953Z,1.30
2023-03-08T06:46:14.444Z,1.40
2023-03-08T06:49:03.303Z,1.40
2023-03-08T06:51:52.382Z,1.50
2023-03-08T06:54:41.232Z,1.50
2023-03-08T06:57:29.359Z,1.60
2023-03-08T07:00:17.850Z,1.70
2023-03-08T07:03:05.429Z,1.70
2023-03-08T07:05:53.016Z,1.70
2023-03-08T07:08:40.857Z,1.70
2023-03-08T07:11:31.474Z,1.80
2023-03-08T07:14:18.926Z,1.80
2023-03-08T07:17:06.344Z,1.80
2023-03-08T07:19:54.050Z,1.90
2023-03-08T07:22:43.993Z,1.90
2023-03-08T07:25:31.467Z,1.90
2023-03-08T07:28:20.456Z,1.90
2023-03-08T07:31:10.994Z,2.00
2023-03-08T07:33:58.513Z,2.00
2023-03-08T07:36:46.230Z,2.10
2023-03-08T07:39:34.022Z,2.10
2023-03-08T07:42:21.602Z,2.20
2023-03-08T07:45:16.710Z,2.30
2023-03-08T07:48:04.334Z,2.30
2023-03-08T07:50:52.046Z,2.30
2023-03-08T07:53:39.515Z,2.40
2023-03-08T07:56:26.981Z,2.40
2023-03-08T07:59:14.717Z,2.50
2023-03-08T08:02:03.875Z,2.50
2023-03-08T08:04:51.958Z,2.60
2023-03-08T08:07:39.365Z,2.70
2023-03-08T08:10:26.875Z,2.90
2023-03-08T08:13:14.305Z,2.90
2023-03-08T08:16:02.789Z,3.00
2023-03-08T08:18:53.277Z,3.00
2023-03-08T08:21:40.641Z,3.10
2023-03-08T08:24:28.581Z,3.10
2023-03-08T08:27:16.075Z,3.10
2023-03-08T08:30:04.167Z,3.20
2023-03-08T08:32:52.710Z,3.30
2023-03-08T08:35:43.694Z,3.30
2023-03-08T08:38:31.408Z,3.40
2023-03-08T08:41:20.438Z,3.40
2023-03-08T08:44:07.971Z,3.40
2023-03-08T08:46:55.724Z,3.60
2023-03-08T08:49:43.260Z,3.70
2023-03-08T08:52:32.089Z,3.80
2023-03-08T08:55:19.510Z,4.00
2023-03-08T08:58:07.606Z,4.10
2023-03-08T09:00:55.426Z,4.30
2023-03-08T09:03:42.931Z,4.50
2023-03-08T09:06:31.363Z,4.60
2023-03-08T09:09:20.999Z,4.80
2023-03-08T09:12:09.555Z,4.80
2023-03-08T09:14:57.145Z,4.80
2023-03-08T09:17:44.814Z,4.90
2023-03-08T09:20:32.246Z,5.00
2023-03-08T09:23:19.887Z,5.30
2023-03-08T09:26:09.836Z,5.40
2023-03-08T09:28:57.627Z,5.60
2023-03-08T09:31:45.420Z,5.70
2023-03-08T09:34:33.109Z,5.80
2023-03-08T09:37:21.137Z,6.00
2023-03-08T09:40:13.698Z,6.00
2023-03-08T09:43:08.453Z,5.80
2023-03-08T09:45:56.494Z,5.70
2023-03-08T09:48:46.569Z,5.60
2023-03-08T09:51:39.851Z,5.40
2023-03-08T09:54:29.041Z,5.40
2023-03-08T09:57:21.950Z,5.60
2023-03-08T10:00:21.893Z,5.70
2023-03-08T10:03:41.437Z,5.70
2023-03-08T10:06:35.157Z,5.80
2023-03-08T10:09:31.300Z,5.90
2023-03-08T10:12:24.756Z,6.10
2023-03-08T10:15:18.862Z,6.40
2023-03-08T10:18:16.257Z,6.60
2023-03-08T10:21:04.405Z,6.80
2023-03-08T10:23:59.914Z,6.90
2023-03-08T10:26:47.770Z,6.80
2023-03-08T10:29:35.339Z,6.80
2023-03-08T10:32:24.863Z,6.50
2023-03-08T10:35:12.766Z,6.20
2023-03-08T10:38:00.253Z,5.90
2023-03-08T10:40:48.022Z,5.60
2023-03-08T10:43:40.509Z,5.50
2023-03-08T10:46:33.032Z,5.60
2023-03-08T10:49:27.866Z,5.80
2023-03-08T10:52:26.632Z,5.90
2023-03-08T10:55:16.178Z,6.00
2023-03-08T10:58:04.724Z,6.20
2023-03-08T11:00:56.141Z,6.30
2023-03-08T11:03:43.573Z,6.50
2023-03-08T11:06:33.233Z,6.70
2023-03-08T11:09:24.012Z,6.80
2023-03-08T11:12:24.019Z,6.90
2023-03-08T11:15:15.493Z,6.90
2023-03-08T11:18:12.543Z,6.90
2023-03-08T11:21:06.779Z,6.90
2023-03-08T11:24:03.533Z,6.70
2023-03-08T11:27:00.932Z,6.60
2023-03-08T11:30:03.877Z,6.60
2023-03-08T11:33:19.403Z,6.60
2023-03-08T11:36:13.240Z,6.60
2023-03-08T11:39:12.259Z,6.60
2023-03-08T11:42:06.889Z,6.60
2023-03-08T11:45:09.933Z,6.60
2023-03-08T11:48:30.870Z,6.70
2023-03-08T11:51:23.775Z,6.70
2023-03-08T11:54:20.181Z,6.70
2023-03-08T11:57:11.251Z,6.70
2023-03-08T12:00:10.386Z,6.60
2023-03-08T12:03:07.490Z,6.40
2023-03-08T12:05:58.058Z,6.20
2023-03-08T12:08:51.313Z,6.10
2023-03-08T12:11:43.740Z,5.90
2023-03-08T12:14:33.697Z,5.90
2023-03-08T12:17:26.935Z,5.90
2023-03-08T12:20:16.107Z,6.00
2023-03-08T12:23:12.393Z,6.10
2023-03-08T12:26:07.596Z,6.30
2023-03-08T12:28:59.844Z,6.40
2023-03-08T12:31:49.337Z,6.40
2023-03-08T12:34:42.027Z,6.50
2023-03-08T12:37:31.452Z,6.50
2023-03-08T12:40:35.847Z,6.50
2023-03-08T12:43:30.999Z,6.50
2023-03-08T12:46:19.674Z,6.50
2023-03-08T12:49:23.972Z,6.50
2023-03-08T12:52:28.116Z,6.50
2023-03-08T12:55:22.172Z,6.60
2023-03-08T12:58:18.912Z,6.60
2023-03-08T13:01:24.002Z,6.50
2023-03-08T13:04:39.806Z,6.50
2023-03-08T13:07:33.453Z,6.40
2023-03-08T13:10:24.357Z,6.30
2023-03-08T13:13:37.976Z,6.20
2023-03-08T13:16:35.440Z,6.20
2023-03-08T13:19:30.032Z,6.30
2023-03-08T13:22:22.477Z,6.20
2023-03-08T13:25:22.031Z,6.10
2023-03-08T13:28:12.704Z,6.10
2023-03-08T13:31:03.154Z,6.10
2023-03-08T13:33:52.280Z,6.10
2023-03-08T13:36:41.271Z,6.10
2023-03-08T13:39:31.182Z,6.10
2023-03-08T13:42:24.688Z,6.20
2023-03-08T13:45:18.713Z,6.30
2023-03-08T13:48:09.986Z,6.30
2023-03-08T13:50:58.197Z,6.30
2023-03-08T13:53:47.888Z,6.20
2023-03-08T13:56:35.433Z,6.10
2023-03-08T13:59:23.257Z,6.00
2023-03-08T14:02:21.460Z,5.90
2023-03-08T14:05:19.475Z,5.90
2023-03-08T14:08:08.916Z,5.90
2023-03-08T14:11:01.241Z,5.90
2023-03-08T14:13:51.858Z,5.80
2023-03-08T14:16:42.022Z,5.80
2023-03-08T14:19:33.250Z,5.70
2023-03-08T14:22:37.758Z,5.70
2023-03-08T14:25:29.428Z,5.60
2023-03-08T14:31:30.327Z,5.60
2023-03-08T14:34:21.048Z,5.60
2023-03-08T14:37:19.645Z,5.60
2023-03-08T14:40:26.198Z,5.70
2023-03-08T14:43:19.125Z,5.70
2023-03-08T14:46:09.319Z,5.70
2023-03-08T14:49:04.549Z,5.70
2023-03-08T14:51:52.973Z,5.70
2023-03-08T14:54:40.464Z,5.70
2023-03-08T14:57:30.485Z,5.70
2023-03-08T15:00:19.143Z,5.60
2023-03-08T15:03:06.823Z,5.60
2023-03-08T15:05:56.700Z,5.50
2023-03-08T15:08:44.364Z,5.40
2023-03-08T15:11:33.357Z,5.40
2023-03-08T15:14:21.186Z,5.30
2023-03-08T15:17:08.849Z,5.30
2023-03-08T15:19:56.500Z,5.20
2023-03-08T15:22:48.251Z,5.20
2023-03-08T15:25:37.487Z,5.10
2023-03-08T15:28:25.420Z,5.10
2023-03-08T15:31:13.121Z,5.00
2023-03-08T15:34:01.673Z,4.90
2023-03-08T15:36:49.333Z,4.90
2023-03-08T15:39:38.448Z,4.80
2023-03-08T15:42:26.242Z,4.80
2023-03-08T15:45:15.231Z,4.70
2023-03-08T15:48:04.310Z,4.70
2023-03-08T15:50:51.924Z,4.70
2023-03-08T15:53:39.196Z,4.60
2023-03-08T15:56:28.225Z,4.60
2023-03-08T15:59:15.924Z,4.60
2023-03-08T16:02:04.093Z,4.60
2023-03-08T16:04:55.817Z,4.50
2023-03-08T16:07:43.732Z,4.50
2023-03-08T16:10:33.245Z,4.50
2023-03-08T16:13:23.052Z,4.50
2023-03-08T16:16:11.125Z,4.40
2023-03-08T16:18:59.844Z,4.40
2023-03-08T16:21:47.477Z,4.40
2023-03-08T16:24:35.527Z,4.40
2023-03-08T16:27:23.343Z,4.30
2023-03-08T16:30:14.015Z,4.30
2023-03-08T16:33:01.685Z,4.30
2023-03-08T16:35:50.730Z,4.30
2023-03-08T16:38:38.573Z,4.30
2023-03-08T16:41:26.297Z,4.20
2023-03-08T16:44:20.867Z,4.30
2023-03-08T16:47:10.131Z,4.20
2023-03-08T16:49:57.482Z,4.20
2023-03-08T16:52:45.014Z,4.20
2023-03-08T16:55:36.974Z,4.20
2023-03-08T16:58:24.683Z,4.20
2023-03-08T17:01:12.852Z,4.20
2023-03-08T17:04:02.080Z,4.20
2023-03-08T17:06:50.040Z,4.20
2023-03-08T17:09:38.610Z,4.10
2023-03-08T17:12:26.718Z,4.10
2023-03-08T17:15:14.143Z,4.10
2023-03-08T17:18:01.584Z,4.10
2023-03-08T17:20:50.312Z,4.10
2023-03-08T17:23:38.287Z,4.10
2023-03-08T17:26:25.841Z,4.10
2023-03-08T17:29:13.403Z,4.10
2023-03-08T17:32:00.819Z,4.10
2023-03-08T17:34:48.782Z,4.10
2023-03-08T17:37:41.849Z,4.00
2023-03-08T17:40:29.703Z,4.00
2023-03-08T17:43:17.399Z,4.10
2023-03-08T17:46:06.832Z,4.00
2023-03-08T17:48:56.323Z,4.00
2023-03-08T17:51:43.992Z,4.00
2023-03-08T17:54:32.719Z,4.00
2023-03-08T17:57:21.682Z,4.00
2023-03-08T18:00:12.287Z,4.00
2023-03-08T18:03:00.189Z,4.00
2023-03-08T18:05:49.904Z,4.00
2023-03-08T18:08:37.817Z,4.00
2023-03-08T18:11:27.799Z,4.00
2023-03-08T18:14:17.427Z,4.00
2023-03-08T18:17:05.204Z,4.00
2023-03-08T18:19:52.733Z,3.90
2023-03-08T18:22:41.872Z,3.90
2023-03-08T18:25:29.237Z,3.90
2023-03-08T18:28:18.588Z,3.90
2023-03-08T18:31:08.344Z,3.90
2023-03-08T18:33:56.350Z,3.90
2023-03-08T18:36:43.988Z,3.90
2023-03-08T18:39:31.457Z,3.90
2023-03-08T18:42:19.015Z,3.90
2023-03-08T18:45:10.125Z,3.90
2023-03-08T18:47:57.328Z,3.90
2023-03-08T18:50:45.853Z,3.90
2023-03-08T18:53:33.774Z,3.90
2023-03-08T18:56:22.392Z,3.80
2023-03-08T18:59:11.850Z,3.80
2023-03-08T19:02:01.039Z,3.80
2023-03-08T19:04:48.610Z,3.80
2023-03-08T19:07:36.332Z,3.80
2023-03-08T19:10:23.734Z,3.80
2023-03-08T19:13:11.262Z,3.80
2023-03-08T19:15:58.975Z,3.80
2023-03-08T19:18:48.445Z,3.80
2023-03-08T19:21:37.630Z,3.70
2023-03-08T19:24:26.825Z,3.70
2023-03-08T19:27:14.346Z,3.70
2023-03-08T19:30:01.807Z,3.70
2023-03-08T19:32:50.309Z,3.70
2023-03-08T19:35:39.430Z,3.70
2023-03-08T19:38:26.950Z,3.70
2023-03-08T19:41:16.150Z,3.70
2023-03-08T19:44:07.089Z,3.70
2023-03-08T19:46:55.224Z,3.70
2023-03-08T19:49:43.811Z,3.70
2023-03-08T19:52:33.106Z,3.70
2023-03-08T19:55:20.490Z,3.70
2023-03-08T19:58:07.950Z,3.70
2023-03-08T20:01:03.709Z,3.70
2023-03-08T20:03:51.497Z,3.70
2023-03-08T20:06:44.513Z,3.70
2023-03-08T20:09:34.798Z,3.70
2023-03-08T20:12:22.470Z,3.70
2023-03-08T20:15:10.093Z,3.60
2023-03-08T20:17:57.521Z,3.60
2023-03-08T20:20:45.771Z,3.60
2023-03-08T20:23:33.405Z,3.60
2023-03-08T20:26:22.726Z,3.60
2023-03-08T20:29:10.313Z,3.60
2023-03-08T20:31:59.233Z,3.60
2023-03-08T20:34:47.023Z,3.60
2023-03-08T20:37:34.725Z,3.60
2023-03-08T20:40:22.238Z,3.60
2023-03-08T20:43:12.022Z,3.60
2023-03-08T20:46:01.702Z,3.60
2023-03-08T20:48:49.482Z,3.50
2023-03-08T20:51:37.353Z,3.50
2023-03-08T20:54:25.130Z,3.50
2023-03-08T20:57:13.056Z,3.50
2023-03-08T21:00:02.174Z,3.50
2023-03-08T21:02:49.825Z,3.50
2023-03-08T21:05:37.523Z,3.50
2023-03-08T21:08:25.212Z,3.50
2023-03-08T21:11:12.996Z,3.50
2023-03-08T21:14:00.941Z,3.50
2023-03-08T21:16:49.744Z,3.50
2023-03-08T21:19:37.839Z,3.40
2023-03-08T21:22:25.638Z,3.50
2023-03-08T21:25:13.226Z,3.50
2023-03-08T21:28:01.039Z,3.50
2023-03-08T21:30:49.100Z,3.50
2023-03-08T21:33:38.198Z,3.50
2023-03-08T21:36:26.052Z,3.50
2023-03-08T21:39:13.922Z,3.50
2023-03-08T21:42:01.687Z,3.40
2023-03-08T21:44:49.110Z,3.40
2023-03-08T21:47:36.284Z,3.40
2023-03-08T21:50:25.292Z,3.40
2023-03-08T21:53:12.756Z,3.40
2023-03-08T21:56:00.478Z,3.40
2023-03-08T21:58:48.218Z,3.40
2023-03-08T22:01:36.237Z,3.40
2023-03-08T22:04:24.190Z,3.40
2023-03-08T22:07:12.863Z,3.40
2023-03-08T22:10:00.470Z,3.40
2023-03-08T22:12:48.662Z,3.40
2023-03-08T22:15:36.573Z,3.40
2023-03-08T22:18:25.896Z,3.50
2023-03-08T22:21:13.490Z,3.40
2023-03-08T22:24:03.341Z,3.40
2023-03-08T22:26:51.046Z,3.40
2023-03-08T22:29:38.754Z,3.40
2023-03-08T22:32:26.462Z,3.50
2023-03-08T22:35:14.192Z,3.50
2023-03-08T22:38:01.821Z,3.40
2023-03-08T22:40:50.777Z,3.50
2023-03-08T22:43:38.676Z,3.50
2023-03-08T22:46:27.996Z,3.50
2023-03-08T22:49:17.019Z,3.50
2023-03-08T22:52:05.418Z,3.40
2023-03-08T22:54:53.223Z,3.50
2023-03-08T22:57:41.943Z,3.40
2023-03-08T23:00:29.804Z,3.40
2023-03-08T23:03:17.620Z,3.40
2023-03-08T23:06:06.232Z,3.40
2023-03-08T23:08:53.535Z,3.40
2023-03-08T23:11:42.340Z,3.40
2023-03-08T23:18:53.252Z,3.40
2023-03-08T23:21:41.154Z,3.40
2023-03-08T23:25:24.253Z,3.40
2023-03-08T23:28:12.381Z,3.40
2023-03-08T23:31:00.374Z,3.40
2023-03-08T23:33:49.094Z,3.50
2023-03-08T23:36:38.831Z,3.50
2023-03-08T23:39:26.826Z,3.40
2023-03-08T23:42:14.431Z,3.40
2023-03-08T23:45:02.085Z,3.50
2023-03-08T23:47:49.640Z,3.40
2023-03-08T23:50:40.000Z,3.40
2023-03-08T23:53:29.118Z,3.40
2023-03-08T23:56:20.915Z,3.40
2023-03-08T23:59:12.084Z,3.40
